Lost Pines, Texas
Current Conditions -  °F | °C
As of 10:53 PM on Friday 21 Nov 2014 (Local Time) from KAUS Reporting Station
Broken Clouds Broken Clouds  
Wind Chill: 67°   Ceiling: 3900
Heat Index: 67°   Visibility: 10mi
Dew Point: 64°   Wind: 14mph
Humidity: 90%   Direction: 150°SSE
Pressure: 30.07"   Gusts: NA
Location:  30.0889°N, 97.4792°W
Report Text: KAUS 220453Z 15012KT 10SM FEW013 FEW020 BKN039 19/18 A3007 RMK AO2 SLP178 T01940178
Loading
Personal Weather Stations






























Interactive Weather Map New forecast layout! Learn more

10-Day Weather Forecast

Advertisements
Track Severe Weather on mobile